DTTF/GAF METAR and TAF weather

Enter ICAO airport designator
Station Type Date Time Source
DTTF METAR 2020/07/10 19:00 UTC NOAA

DTTF 101900Z 17014KT 31/18 Q1014


Station Type Date Time Source
DTTF Decoded METAR 2020/07/10 19:00 UTC NOAA

Gafsa, Tunisia (DTTF) 34-25N 008-49E 314M
Jul 10, 2020 - 03:00 PM EDT / 2020.07.10 1900 UTC
Wind: from the S (170 degrees) at 16 MPH (14 KT):0
Temperature: 87 F (31 C)
Dew Point: 64 F (18 C)
Relative Humidity: 45%
Pressure (altimeter): 29.94 in. Hg (1014 hPa)
ob: DTTF 101900Z 17014KT 31/18 Q1014
cycle: 19

Station Type Date Time Source
DTTF TAF 2018/07/22 13:33 UTC NOAA

TAF DTTF 221200Z 2213/2322 22010KT 7000 NSC PROB30
TEMPO 2216/2220 4000 -TSRA FEW026CB

Example: see airport list